Nome, AK

11:37 PM AKST on November 27, 2014 (GMT -0900)
Nome | Change Station
CLOSE
Current Station
Airport
Location: Nome,
Elevation: 36 ft
Nearby Weather Stations

Elev 36 ft 64.51 °N, 165.45 °W | Updated 22 minutes ago

Light Snow
Light Snow Mist
24 °F
Feels Like 9 °F
N
23
Wind Variable Wind from East

Today
High -- | Low -- °F
--% Chance of Precip.
Yesterday
High -- | Low -- °F
Precip. -- in
11:13 AM 4:24 PM
Waxing Crescent, 38% visible
Pressure 29.93 in
Visibility 5.0 miles
Clouds Mostly Cloudy 900 ft
Overcast 1300 ft
Windchill 9 °F
Dew Point 23 °F
Humidity 96%
Rainfall 0.12 in
Snow Depth Not available.
UV 0 out of 12
Pollen Not available.
Air Quality Not available.
Flu Activity Not available.
SPECI PAOM 280815Z 10020KT 5SM -SN BR BKN009 OVC013 M04/M05 A2993 RMK AO2 PK WND 09026/0806 P0001 T10441050

More Conditions Fewer Conditions

Pressure 29.93 in
Visibility 5.0 miles
Clouds Mostly Cloudy 900 ft
Overcast 1300 ft
Windchill 9 °F
Dew Point 23 °F
Humidity 96%
Rainfall 0.12 in
Snow Depth Not available.
UV 0 out of 12
Pollen Not available.
Air Quality Not available.
Flu Activity Not available.
SPECI PAOM 280815Z 10020KT 5SM -SN BR BKN009 OVC013 M04/M05 A2993 RMK AO2 PK WND 09026/0806 P0001 T10441050

More Conditions Fewer Conditions

10-Day Weather Forecast

Almanac

Astronomy

Nov. 27, 2014 Rise Set
Actual Time
Civil Twilight
Nautical Twilight
Astronomical Twilight
Moon
Length of Visible Light
Length of Day
Tomorrow will be .
, % of the Moon is Illuminated

Today's Extremes

State Highs State Lows

Community

WunderPhotos

Upload Photos

1,774,191 photos uploaded!

WunderBlogs® & News

Nearby

Air Quality

  Air Quality AQ Index Pollutant
Not available.

Snow Depth

Station Depth Elevation

Earthquake Activity

City Distance Mag. Time & Date
Minimum magnitude displayed is 2.5.

Coastal Water Temperatures

Place Temperature

Nearby Weather Stations